sensor_id;sensor_type;location;lat;lon;timestamp;temperature;humidity
39493;DHT22;25176;51.060;3.720;2023-07-24T00:02:13;20.20;99.90
39493;DHT22;25176;51.060;3.720;2023-07-24T00:04:39;20.30;99.90
39493;DHT22;25176;51.060;3.720;2023-07-24T00:07:04;20.20;99.90
39493;DHT22;25176;51.060;3.720;2023-07-24T00:09:30;20.30;99.90
39493;DHT22;25176;51.060;3.720;2023-07-24T00:11:55;20.40;99.90
39493;DHT22;25176;51.060;3.720;2023-07-24T00:14:21;20.40;99.90
39493;DHT22;25176;51.060;3.720;2023-07-24T00:16:47;20.50;99.90
39493;DHT22;25176;51.060;3.720;2023-07-24T00:19:12;20.40;99.90
39493;DHT22;25176;51.060;3.720;2023-07-24T00:21:37;20.40;99.90
39493;DHT22;25176;51.060;3.720;2023-07-24T00:24:03;20.40;99.90
39493;DHT22;25176;51.060;3.720;2023-07-24T00:26:29;20.40;99.90
39493;DHT22;25176;51.060;3.720;2023-07-24T00:28:54;20.30;99.90
39493;DHT22;25176;51.060;3.720;2023-07-24T00:31:20;20.40;99.90
39493;DHT22;25176;51.060;3.720;2023-07-24T00:33:45;20.30;99.90
39493;DHT22;25176;51.060;3.720;2023-07-24T00:36:11;20.30;99.90
39493;DHT22;25176;51.060;3.720;2023-07-24T00:38:36;20.30;99.90
39493;DHT22;25176;51.060;3.720;2023-07-24T00:41:02;20.30;99.90
39493;DHT22;25176;51.060;3.720;2023-07-24T00:43:27;20.30;99.90
39493;DHT22;25176;51.060;3.720;2023-07-24T00:45:53;20.20;99.90
39493;DHT22;25176;51.060;3.720;2023-07-24T00:48:19;20.10;99.90
39493;DHT22;25176;51.060;3.720;2023-07-24T00:50:45;20.20;99.90
39493;DHT22;25176;51.060;3.720;2023-07-24T00:53:11;20.10;99.90
39493;DHT22;25176;51.060;3.720;2023-07-24T00:55:37;20.10;99.90
39493;DHT22;25176;51.060;3.720;2023-07-24T00:58:03;20.20;99.90
39493;DHT22;25176;51.060;3.720;2023-07-24T01:00:28;20.10;99.90
39493;DHT22;25176;51.060;3.720;2023-07-24T01:02:54;20.00;99.90
39493;DHT22;25176;51.060;3.720;2023-07-24T01:05:21;20.00;99.90
39493;DHT22;25176;51.060;3.720;2023-07-24T01:07:47;20.00;99.90
39493;DHT22;25176;51.060;3.720;2023-07-24T01:10:13;20.00;99.90
39493;DHT22;25176;51.060;3.720;2023-07-24T01:12:45;20.00;99.90
39493;DHT22;25176;51.060;3.720;2023-07-24T01:15:19;20.00;99.90
39493;DHT22;25176;51.060;3.720;2023-07-24T01:17:48;20.00;99.90
39493;DHT22;25176;51.060;3.720;2023-07-24T01:20:15;19.90;99.90
39493;DHT22;25176;51.060;3.720;2023-07-24T01:22:54;19.90;99.90
39493;DHT22;25176;51.060;3.720;2023-07-24T01:25:24;19.90;99.90
39493;DHT22;25176;51.060;3.720;2023-07-24T01:27:52;19.90;99.90
39493;DHT22;25176;51.060;3.720;2023-07-24T01:30:18;19.90;99.90
39493;DHT22;25176;51.060;3.720;2023-07-24T01:32:44;19.70;99.90
39493;DHT22;25176;51.060;3.720;2023-07-24T01:35:09;19.70;99.90
39493;DHT22;25176;51.060;3.720;2023-07-24T01:37:35;19.70;99.90
39493;DHT22;25176;51.060;3.720;2023-07-24T01:40:02;19.70;99.90
39493;DHT22;25176;51.060;3.720;2023-07-24T01:42:27;19.70;99.90
39493;DHT22;25176;51.060;3.720;2023-07-24T01:44:53;19.70;99.90
39493;DHT22;25176;51.060;3.720;2023-07-24T01:47:19;19.80;99.90
39493;DHT22;25176;51.060;3.720;2023-07-24T01:49:44;19.80;99.90
39493;DHT22;25176;51.060;3.720;2023-07-24T01:52:10;19.80;99.90
39493;DHT22;25176;51.060;3.720;2023-07-24T01:54:35;19.90;99.90
39493;DHT22;25176;51.060;3.720;2023-07-24T01:57:01;19.90;99.90
39493;DHT22;25176;51.060;3.720;2023-07-24T01:59:26;19.90;99.90
39493;DHT22;25176;51.060;3.720;2023-07-24T02:01:52;19.90;99.90
39493;DHT22;25176;51.060;3.720;2023-07-24T02:04:17;20.00;99.90
39493;DHT22;25176;51.060;3.720;2023-07-24T02:06:43;20.00;99.90
39493;DHT22;25176;51.060;3.720;2023-07-24T02:09:08;20.00;99.90
39493;DHT22;25176;51.060;3.720;2023-07-24T02:11:34;19.90;99.90
39493;DHT22;25176;51.060;3.720;2023-07-24T02:13:59;20.00;99.90
39493;DHT22;25176;51.060;3.720;2023-07-24T02:16:25;19.90;99.90
39493;DHT22;25176;51.060;3.720;2023-07-24T02:18:50;19.90;99.90
39493;DHT22;25176;51.060;3.720;2023-07-24T02:21:16;19.90;99.90
39493;DHT22;25176;51.060;3.720;2023-07-24T02:23:41;19.90;99.90
39493;DHT22;25176;51.060;3.720;2023-07-24T02:26:07;19.90;99.90
39493;DHT22;25176;51.060;3.720;2023-07-24T02:28:32;19.80;99.90
39493;DHT22;25176;51.060;3.720;2023-07-24T02:30:58;19.80;99.90
39493;DHT22;25176;51.060;3.720;2023-07-24T02:33:25;19.80;99.90
39493;DHT22;25176;51.060;3.720;2023-07-24T02:35:51;19.70;99.90
39493;DHT22;25176;51.060;3.720;2023-07-24T02:38:17;19.70;99.90
39493;DHT22;25176;51.060;3.720;2023-07-24T02:40:43;19.70;99.90
39493;DHT22;25176;51.060;3.720;2023-07-24T02:43:08;19.50;99.90
39493;DHT22;25176;51.060;3.720;2023-07-24T02:45:34;19.50;99.90
39493;DHT22;25176;51.060;3.720;2023-07-24T02:48:00;19.40;99.90
39493;DHT22;25176;51.060;3.720;2023-07-24T02:50:27;19.40;99.90
39493;DHT22;25176;51.060;3.720;2023-07-24T02:52:52;19.30;99.90
39493;DHT22;25176;51.060;3.720;2023-07-24T02:55:18;19.30;99.90
39493;DHT22;25176;51.060;3.720;2023-07-24T02:57:43;19.30;99.90
39493;DHT22;25176;51.060;3.720;2023-07-24T03:00:09;19.30;99.90
39493;DHT22;25176;51.060;3.720;2023-07-24T03:02:35;19.20;99.90
39493;DHT22;25176;51.060;3.720;2023-07-24T03:05:00;19.20;99.90
39493;DHT22;25176;51.060;3.720;2023-07-24T03:07:26;19.20;99.90
39493;DHT22;25176;51.060;3.720;2023-07-24T03:09:51;19.30;99.90
39493;DHT22;25176;51.060;3.720;2023-07-24T03:12:17;19.20;99.90
39493;DHT22;25176;51.060;3.720;2023-07-24T03:14:42;19.30;99.90
39493;DHT22;25176;51.060;3.720;2023-07-24T03:17:08;19.20;99.90
39493;DHT22;25176;51.060;3.720;2023-07-24T03:19:33;19.10;99.90
39493;DHT22;25176;51.060;3.720;2023-07-24T03:21:59;19.00;99.90
39493;DHT22;25176;51.060;3.720;2023-07-24T03:24:24;19.00;99.90
39493;DHT22;25176;51.060;3.720;2023-07-24T03:26:50;19.10;99.90
39493;DHT22;25176;51.060;3.720;2023-07-24T03:29:15;19.10;99.90
39493;DHT22;25176;51.060;3.720;2023-07-24T03:31:40;19.10;99.90
39493;DHT22;25176;51.060;3.720;2023-07-24T03:34:06;19.10;99.90
39493;DHT22;25176;51.060;3.720;2023-07-24T03:36:31;19.10;99.90
39493;DHT22;25176;51.060;3.720;2023-07-24T03:38:57;19.10;99.90
39493;DHT22;25176;51.060;3.720;2023-07-24T03:41:22;19.10;99.90
39493;DHT22;25176;51.060;3.720;2023-07-24T03:43:48;19.10;99.90
39493;DHT22;25176;51.060;3.720;2023-07-24T03:46:13;19.10;99.90
39493;DHT22;25176;51.060;3.720;2023-07-24T03:48:39;19.10;99.90
39493;DHT22;25176;51.060;3.720;2023-07-24T03:51:04;18.90;99.90
39493;DHT22;25176;51.060;3.720;2023-07-24T03:53:30;18.90;99.90
39493;DHT22;25176;51.060;3.720;2023-07-24T03:55:55;19.00;99.90
39493;DHT22;25176;51.060;3.720;2023-07-24T03:58:21;18.80;99.90
39493;DHT22;25176;51.060;3.720;2023-07-24T04:00:46;18.80;99.90
39493;DHT22;25176;51.060;3.720;2023-07-24T04:03:12;18.80;99.90
39493;DHT22;25176;51.060;3.720;2023-07-24T04:05:37;18.80;99.90
39493;DHT22;25176;51.060;3.720;2023-07-24T04:08:03;18.90;99.90
39493;DHT22;25176;51.060;3.720;2023-07-24T04:10:28;18.90;99.90
39493;DHT22;25176;51.060;3.720;2023-07-24T04:12:56;18.90;99.90
39493;DHT22;25176;51.060;3.720;2023-07-24T04:15:22;18.90;99.90
39493;DHT22;25176;51.060;3.720;2023-07-24T04:17:47;18.90;99.90
39493;DHT22;25176;51.060;3.720;2023-07-24T04:20:13;19.00;99.90
39493;DHT22;25176;51.060;3.720;2023-07-24T04:22:38;19.00;99.90
39493;DHT22;25176;51.060;3.720;2023-07-24T04:25:04;18.90;99.90
39493;DHT22;25176;51.060;3.720;2023-07-24T04:27:30;18.90;99.90
39493;DHT22;25176;51.060;3.720;2023-07-24T04:29:55;19.10;99.90
39493;DHT22;25176;51.060;3.720;2023-07-24T04:32:21;19.10;99.90
39493;DHT22;25176;51.060;3.720;2023-07-24T04:34:46;19.10;99.90
39493;DHT22;25176;51.060;3.720;2023-07-24T04:37:12;19.00;99.90
39493;DHT22;25176;51.060;3.720;2023-07-24T04:39:40;19.10;99.90
39493;DHT22;25176;51.060;3.720;2023-07-24T04:42:06;19.00;99.90
39493;DHT22;25176;51.060;3.720;2023-07-24T04:44:31;19.00;99.90
39493;DHT22;25176;51.060;3.720;2023-07-24T04:46:57;18.90;99.90
39493;DHT22;25176;51.060;3.720;2023-07-24T04:49:23;19.00;99.90
39493;DHT22;25176;51.060;3.720;2023-07-24T04:51:50;19.00;99.90
39493;DHT22;25176;51.060;3.720;2023-07-24T04:54:15;19.10;99.90
39493;DHT22;25176;51.060;3.720;2023-07-24T04:56:41;19.20;99.90
39493;DHT22;25176;51.060;3.720;2023-07-24T04:59:06;19.20;99.90
39493;DHT22;25176;51.060;3.720;2023-07-24T05:01:32;19.10;99.90
39493;DHT22;25176;51.060;3.720;2023-07-24T05:03:57;19.10;99.90
39493;DHT22;25176;51.060;3.720;2023-07-24T05:06:23;19.20;99.90
39493;DHT22;25176;51.060;3.720;2023-07-24T05:08:48;19.20;99.90
39493;DHT22;25176;51.060;3.720;2023-07-24T05:11:14;19.10;99.90
39493;DHT22;25176;51.060;3.720;2023-07-24T05:13:40;19.00;99.90
39493;DHT22;25176;51.060;3.720;2023-07-24T05:16:05;19.00;99.90
39493;DHT22;25176;51.060;3.720;2023-07-24T05:18:31;19.10;99.90
39493;DHT22;25176;51.060;3.720;2023-07-24T05:20:56;19.00;99.90
39493;DHT22;25176;51.060;3.720;2023-07-24T05:23:22;19.00;99.90
39493;DHT22;25176;51.060;3.720;2023-07-24T05:25:47;19.00;99.90
39493;DHT22;25176;51.060;3.720;2023-07-24T05:28:13;19.10;99.90
39493;DHT22;25176;51.060;3.720;2023-07-24T05:30:38;19.00;99.90
39493;DHT22;25176;51.060;3.720;2023-07-24T05:33:04;19.20;99.90
39493;DHT22;25176;51.060;3.720;2023-07-24T05:35:29;19.30;99.90
39493;DHT22;25176;51.060;3.720;2023-07-24T05:37:55;19.30;99.90
39493;DHT22;25176;51.060;3.720;2023-07-24T05:40:20;19.40;99.90
39493;DHT22;25176;51.060;3.720;2023-07-24T05:42:46;19.50;99.90
39493;DHT22;25176;51.060;3.720;2023-07-24T05:45:13;19.50;99.90
39493;DHT22;25176;51.060;3.720;2023-07-24T05:47:39;19.50;99.90
39493;DHT22;25176;51.060;3.720;2023-07-24T05:50:05;19.60;99.90
39493;DHT22;25176;51.060;3.720;2023-07-24T05:52:31;19.90;99.90
39493;DHT22;25176;51.060;3.720;2023-07-24T05:54:56;20.20;99.90
39493;DHT22;25176;51.060;3.720;2023-07-24T05:57:21;20.40;99.90
39493;DHT22;25176;51.060;3.720;2023-07-24T05:59:47;20.50;99.90
39493;DHT22;25176;51.060;3.720;2023-07-24T06:02:12;20.60;99.90
39493;DHT22;25176;51.060;3.720;2023-07-24T06:04:38;20.50;99.90
39493;DHT22;25176;51.060;3.720;2023-07-24T06:07:03;20.50;99.90
39493;DHT22;25176;51.060;3.720;2023-07-24T06:09:29;20.60;99.90
39493;DHT22;25176;51.060;3.720;2023-07-24T06:11:54;20.60;99.90
39493;DHT22;25176;51.060;3.720;2023-07-24T06:14:20;20.80;99.90
39493;DHT22;25176;51.060;3.720;2023-07-24T06:16:45;20.90;99.90
39493;DHT22;25176;51.060;3.720;2023-07-24T06:19:11;20.80;99.90
39493;DHT22;25176;51.060;3.720;2023-07-24T06:21:36;20.70;99.90
39493;DHT22;25176;51.060;3.720;2023-07-24T06:24:02;20.70;99.90
39493;DHT22;25176;51.060;3.720;2023-07-24T06:26:28;20.70;99.90
39493;DHT22;25176;51.060;3.720;2023-07-24T06:28:54;20.60;99.90
39493;DHT22;25176;51.060;3.720;2023-07-24T06:31:19;20.70;99.90
39493;DHT22;25176;51.060;3.720;2023-07-24T06:33:45;20.60;99.90
39493;DHT22;25176;51.060;3.720;2023-07-24T06:36:10;20.40;99.90
39493;DHT22;25176;51.060;3.720;2023-07-24T06:38:36;20.20;99.90
39493;DHT22;25176;51.060;3.720;2023-07-24T06:41:01;20.30;99.90
39493;DHT22;25176;51.060;3.720;2023-07-24T06:43:28;20.40;99.90
39493;DHT22;25176;51.060;3.720;2023-07-24T06:45:53;20.40;99.90
39493;DHT22;25176;51.060;3.720;2023-07-24T06:48:19;20.30;99.90
39493;DHT22;25176;51.060;3.720;2023-07-24T06:50:44;20.20;99.90
39493;DHT22;25176;51.060;3.720;2023-07-24T06:53:10;20.10;99.90
39493;DHT22;25176;51.060;3.720;2023-07-24T06:55:35;20.00;99.90
39493;DHT22;25176;51.060;3.720;2023-07-24T06:58:01;19.90;99.90
39493;DHT22;25176;51.060;3.720;2023-07-24T07:00:26;19.90;99.90
39493;DHT22;25176;51.060;3.720;2023-07-24T07:02:52;19.80;99.90
39493;DHT22;25176;51.060;3.720;2023-07-24T07:05:17;19.80;99.90
39493;DHT22;25176;51.060;3.720;2023-07-24T07:07:43;19.80;99.90
39493;DHT22;25176;51.060;3.720;2023-07-24T07:10:08;19.80;99.90
39493;DHT22;25176;51.060;3.720;2023-07-24T07:12:34;19.70;99.90
39493;DHT22;25176;51.060;3.720;2023-07-24T07:15:00;19.50;99.90
39493;DHT22;25176;51.060;3.720;2023-07-24T07:17:25;19.30;99.90
39493;DHT22;25176;51.060;3.720;2023-07-24T07:19:50;19.30;99.90
39493;DHT22;25176;51.060;3.720;2023-07-24T07:22:16;19.30;99.90
39493;DHT22;25176;51.060;3.720;2023-07-24T07:24:41;19.50;99.90
39493;DHT22;25176;51.060;3.720;2023-07-24T07:27:08;19.70;99.90
39493;DHT22;25176;51.060;3.720;2023-07-24T07:29:34;19.90;99.90
39493;DHT22;25176;51.060;3.720;2023-07-24T07:31:59;20.00;99.90
39493;DHT22;25176;51.060;3.720;2023-07-24T07:34:25;20.20;99.90
39493;DHT22;25176;51.060;3.720;2023-07-24T07:36:50;20.50;99.90
39493;DHT22;25176;51.060;3.720;2023-07-24T07:39:16;20.90;99.90
39493;DHT22;25176;51.060;3.720;2023-07-24T07:41:41;21.00;99.90
39493;DHT22;25176;51.060;3.720;2023-07-24T07:44:07;21.10;99.90
39493;DHT22;25176;51.060;3.720;2023-07-24T07:46:32;21.50;99.90
39493;DHT22;25176;51.060;3.720;2023-07-24T07:48:57;21.70;99.90
39493;DHT22;25176;51.060;3.720;2023-07-24T07:51:23;22.20;99.90
39493;DHT22;25176;51.060;3.720;2023-07-24T07:53:50;22.40;99.90
39493;DHT22;25176;51.060;3.720;2023-07-24T07:56:16;23.20;99.90
39493;DHT22;25176;51.060;3.720;2023-07-24T07:58:41;23.80;99.20
39493;DHT22;25176;51.060;3.720;2023-07-24T08:01:07;24.00;97.70
39493;DHT22;25176;51.060;3.720;2023-07-24T08:03:32;23.90;97.70
39493;DHT22;25176;51.060;3.720;2023-07-24T08:05:58;23.70;97.40
39493;DHT22;25176;51.060;3.720;2023-07-24T08:08:24;23.50;98.10
39493;DHT22;25176;51.060;3.720;2023-07-24T08:10:49;23.20;98.10
39493;DHT22;25176;51.060;3.720;2023-07-24T08:13:15;23.10;99.00
39493;DHT22;25176;51.060;3.720;2023-07-24T08:15:40;22.80;99.20
39493;DHT22;25176;51.060;3.720;2023-07-24T08:18:06;22.50;99.60
39493;DHT22;25176;51.060;3.720;2023-07-24T08:20:32;22.70;99.80
39493;DHT22;25176;51.060;3.720;2023-07-24T08:22:57;22.90;99.80
39493;DHT22;25176;51.060;3.720;2023-07-24T08:25:23;23.20;99.30
39493;DHT22;25176;51.060;3.720;2023-07-24T08:27:48;23.00;99.20
39493;DHT22;25176;51.060;3.720;2023-07-24T08:30:14;23.10;99.50
39493;DHT22;25176;51.060;3.720;2023-07-24T08:32:39;23.70;99.40
39493;DHT22;25176;51.060;3.720;2023-07-24T08:35:05;23.80;97.90
39493;DHT22;25176;51.060;3.720;2023-07-24T08:37:31;24.30;97.60
39493;DHT22;25176;51.060;3.720;2023-07-24T08:39:56;24.30;97.50
39493;DHT22;25176;51.060;3.720;2023-07-24T08:42:22;24.70;97.00
39493;DHT22;25176;51.060;3.720;2023-07-24T08:44:47;25.00;95.80
39493;DHT22;25176;51.060;3.720;2023-07-24T08:47:13;25.60;95.30
39493;DHT22;25176;51.060;3.720;2023-07-24T08:49:40;26.40;93.30
39493;DHT22;25176;51.060;3.720;2023-07-24T08:52:07;26.90;92.20
39493;DHT22;25176;51.060;3.720;2023-07-24T08:54:34;27.40;90.90
39493;DHT22;25176;51.060;3.720;2023-07-24T08:57:01;27.90;90.20
39493;DHT22;25176;51.060;3.720;2023-07-24T08:59:27;27.60;86.40
39493;DHT22;25176;51.060;3.720;2023-07-24T09:01:53;28.50;83.60
39493;DHT22;25176;51.060;3.720;2023-07-24T09:04:18;30.00;79.60
39493;DHT22;25176;51.060;3.720;2023-07-24T09:06:44;31.00;74.60
39493;DHT22;25176;51.060;3.720;2023-07-24T09:09:13;32.40;72.90
39493;DHT22;25176;51.060;3.720;2023-07-24T09:11:46;34.50;66.30
39493;DHT22;25176;51.060;3.720;2023-07-24T09:14:19;35.90;61.10
39493;DHT22;25176;51.060;3.720;2023-07-24T09:16:45;35.60;58.90
39493;DHT22;25176;51.060;3.720;2023-07-24T09:19:16;35.30;59.00
39493;DHT22;25176;51.060;3.720;2023-07-24T09:21:41;37.00;57.40
39493;DHT22;25176;51.060;3.720;2023-07-24T09:24:11;36.60;55.10
39493;DHT22;25176;51.060;3.720;2023-07-24T09:26:46;36.80;54.50
39493;DHT22;25176;51.060;3.720;2023-07-24T09:29:11;37.70;54.20
39493;DHT22;25176;51.060;3.720;2023-07-24T09:31:37;38.80;51.50
39493;DHT22;25176;51.060;3.720;2023-07-24T09:34:02;38.60;51.80
39493;DHT22;25176;51.060;3.720;2023-07-24T09:36:36;38.40;50.90
39493;DHT22;25176;51.060;3.720;2023-07-24T09:39:02;37.40;51.50
39493;DHT22;25176;51.060;3.720;2023-07-24T09:41:31;34.70;52.80
39493;DHT22;25176;51.060;3.720;2023-07-24T09:43:59;33.50;53.90
39493;DHT22;25176;51.060;3.720;2023-07-24T09:46:25;33.20;53.90
39493;DHT22;25176;51.060;3.720;2023-07-24T09:48:51;31.80;55.20
39493;DHT22;25176;51.060;3.720;2023-07-24T09:51:16;30.80;56.80
39493;DHT22;25176;51.060;3.720;2023-07-24T09:53:47;30.00;58.60
39493;DHT22;25176;51.060;3.720;2023-07-24T09:56:17;29.40;59.60
39493;DHT22;25176;51.060;3.720;2023-07-24T09:58:43;29.40;59.70
39493;DHT22;25176;51.060;3.720;2023-07-24T10:01:09;29.10;60.10
39493;DHT22;25176;51.060;3.720;2023-07-24T10:03:37;29.20;61.10
39493;DHT22;25176;51.060;3.720;2023-07-24T10:06:03;28.70;60.90
39493;DHT22;25176;51.060;3.720;2023-07-24T10:08:29;28.90;61.60
39493;DHT22;25176;51.060;3.720;2023-07-24T10:10:55;28.80;61.80
39493;DHT22;25176;51.060;3.720;2023-07-24T10:13:21;28.30;62.20
39493;DHT22;25176;51.060;3.720;2023-07-24T10:15:48;28.10;62.40
39493;DHT22;25176;51.060;3.720;2023-07-24T10:18:15;28.70;61.70
39493;DHT22;25176;51.060;3.720;2023-07-24T10:20:41;28.20;62.60
39493;DHT22;25176;51.060;3.720;2023-07-24T10:23:09;28.10;63.30
39493;DHT22;25176;51.060;3.720;2023-07-24T10:25:38;28.20;63.70
39493;DHT22;25176;51.060;3.720;2023-07-24T10:28:06;28.40;62.40
39493;DHT22;25176;51.060;3.720;2023-07-24T10:30:41;28.30;62.10
39493;DHT22;25176;51.060;3.720;2023-07-24T10:33:11;28.40;62.50
39493;DHT22;25176;51.060;3.720;2023-07-24T10:35:47;27.90;62.90
39493;DHT22;25176;51.060;3.720;2023-07-24T10:38:13;27.30;64.50
39493;DHT22;25176;51.060;3.720;2023-07-24T10:40:39;27.30;64.90
39493;DHT22;25176;51.060;3.720;2023-07-24T10:43:06;27.10;64.90
39493;DHT22;25176;51.060;3.720;2023-07-24T10:45:42;27.00;65.40
39493;DHT22;25176;51.060;3.720;2023-07-24T10:48:07;26.60;66.30
39493;DHT22;25176;51.060;3.720;2023-07-24T10:50:40;26.50;66.90
39493;DHT22;25176;51.060;3.720;2023-07-24T10:53:06;26.40;67.40
39493;DHT22;25176;51.060;3.720;2023-07-24T10:55:31;26.50;68.00
39493;DHT22;25176;51.060;3.720;2023-07-24T10:57:57;26.60;68.10
39493;DHT22;25176;51.060;3.720;2023-07-24T11:00:23;26.80;67.30
39493;DHT22;25176;51.060;3.720;2023-07-24T11:02:49;26.80;67.00
39493;DHT22;25176;51.060;3.720;2023-07-24T11:05:14;26.90;67.30
39493;DHT22;25176;51.060;3.720;2023-07-24T11:07:41;27.50;65.70
39493;DHT22;25176;51.060;3.720;2023-07-24T11:10:27;27.30;66.20
39493;DHT22;25176;51.060;3.720;2023-07-24T11:12:55;27.20;65.40
39493;DHT22;25176;51.060;3.720;2023-07-24T11:15:24;27.30;65.10
39493;DHT22;25176;51.060;3.720;2023-07-24T11:17:50;27.40;65.30
39493;DHT22;25176;51.060;3.720;2023-07-24T11:20:16;27.00;65.30
39493;DHT22;25176;51.060;3.720;2023-07-24T11:22:42;26.80;65.90
39493;DHT22;25176;51.060;3.720;2023-07-24T11:25:08;26.00;67.20
39493;DHT22;25176;51.060;3.720;2023-07-24T11:27:38;26.00;68.00
39493;DHT22;25176;51.060;3.720;2023-07-24T11:30:03;26.20;67.90
39493;DHT22;25176;51.060;3.720;2023-07-24T11:32:29;26.30;67.80
39493;DHT22;25176;51.060;3.720;2023-07-24T11:34:54;26.50;67.60
39493;DHT22;25176;51.060;3.720;2023-07-24T11:37:20;26.00;67.60
39493;DHT22;25176;51.060;3.720;2023-07-24T11:39:59;26.20;68.30
39493;DHT22;25176;51.060;3.720;2023-07-24T11:42:26;25.60;69.10
39493;DHT22;25176;51.060;3.720;2023-07-24T11:44:51;25.60;69.60
39493;DHT22;25176;51.060;3.720;2023-07-24T11:47:17;25.60;69.80
39493;DHT22;25176;51.060;3.720;2023-07-24T11:49:42;25.60;69.60
39493;DHT22;25176;51.060;3.720;2023-07-24T11:52:13;25.80;70.00
39493;DHT22;25176;51.060;3.720;2023-07-24T11:54:39;25.70;69.60
39493;DHT22;25176;51.060;3.720;2023-07-24T11:57:14;25.80;69.90
39493;DHT22;25176;51.060;3.720;2023-07-24T11:59:41;26.00;69.00
39493;DHT22;25176;51.060;3.720;2023-07-24T12:02:08;25.80;69.80
39493;DHT22;25176;51.060;3.720;2023-07-24T12:04:34;26.00;70.00
39493;DHT22;25176;51.060;3.720;2023-07-24T12:06:59;26.00;69.90
39493;DHT22;25176;51.060;3.720;2023-07-24T12:09:29;25.50;70.90
39493;DHT22;25176;51.060;3.720;2023-07-24T12:11:57;25.40;71.50
39493;DHT22;25176;51.060;3.720;2023-07-24T12:14:23;25.20;71.80
39493;DHT22;25176;51.060;3.720;2023-07-24T12:16:49;25.20;74.40
39493;DHT22;25176;51.060;3.720;2023-07-24T12:19:14;25.40;73.40
39493;DHT22;25176;51.060;3.720;2023-07-24T12:21:39;25.50;73.70
39493;DHT22;25176;51.060;3.720;2023-07-24T12:24:05;25.60;74.50
39493;DHT22;25176;51.060;3.720;2023-07-24T12:26:30;25.80;75.30
39493;DHT22;25176;51.060;3.720;2023-07-24T12:28:56;26.10;75.00
39493;DHT22;25176;51.060;3.720;2023-07-24T12:31:23;25.90;74.50
39493;DHT22;25176;51.060;3.720;2023-07-24T12:33:48;25.90;75.20
39493;DHT22;25176;51.060;3.720;2023-07-24T12:36:13;25.70;76.90
39493;DHT22;25176;51.060;3.720;2023-07-24T12:38:39;25.80;77.00
39493;DHT22;25176;51.060;3.720;2023-07-24T12:41:04;25.80;75.50
39493;DHT22;25176;51.060;3.720;2023-07-24T12:43:30;25.90;74.90
39493;DHT22;25176;51.060;3.720;2023-07-24T12:45:55;25.70;74.70
39493;DHT22;25176;51.060;3.720;2023-07-24T12:48:21;25.40;74.60
39493;DHT22;25176;51.060;3.720;2023-07-24T12:50:46;25.30;75.70
39493;DHT22;25176;51.060;3.720;2023-07-24T12:53:12;25.10;75.20
39493;DHT22;25176;51.060;3.720;2023-07-24T12:55:37;25.00;75.60
39493;DHT22;25176;51.060;3.720;2023-07-24T12:58:03;24.90;75.70
39493;DHT22;25176;51.060;3.720;2023-07-24T13:00:29;24.80;75.10
39493;DHT22;25176;51.060;3.720;2023-07-24T13:02:55;24.60;76.80
39493;DHT22;25176;51.060;3.720;2023-07-24T13:05:20;24.00;78.10
39493;DHT22;25176;51.060;3.720;2023-07-24T13:07:46;23.30;80.50
39493;DHT22;25176;51.060;3.720;2023-07-24T13:10:11;22.90;82.70
39493;DHT22;25176;51.060;3.720;2023-07-24T13:12:37;22.60;88.00
39493;DHT22;25176;51.060;3.720;2023-07-24T13:15:02;22.10;89.00
39493;DHT22;25176;51.060;3.720;2023-07-24T13:17:28;22.00;91.70
39493;DHT22;25176;51.060;3.720;2023-07-24T13:19:55;22.00;93.00
39493;DHT22;25176;51.060;3.720;2023-07-24T13:22:20;22.00;94.30
39493;DHT22;25176;51.060;3.720;2023-07-24T13:24:46;22.00;94.90
39493;DHT22;25176;51.060;3.720;2023-07-24T13:27:11;21.90;95.80
39493;DHT22;25176;51.060;3.720;2023-07-24T13:29:37;21.80;97.00
39493;DHT22;25176;51.060;3.720;2023-07-24T13:32:02;21.80;97.10
39493;DHT22;25176;51.060;3.720;2023-07-24T13:34:28;21.80;97.10
39493;DHT22;25176;51.060;3.720;2023-07-24T13:36:53;21.70;97.20
39493;DHT22;25176;51.060;3.720;2023-07-24T13:39:19;21.80;97.60
39493;DHT22;25176;51.060;3.720;2023-07-24T13:41:44;21.80;97.90
39493;DHT22;25176;51.060;3.720;2023-07-24T13:44:10;21.80;97.00
39493;DHT22;25176;51.060;3.720;2023-07-24T13:46:35;21.90;97.20
39493;DHT22;25176;51.060;3.720;2023-07-24T13:49:01;21.90;96.80
39493;DHT22;25176;51.060;3.720;2023-07-24T13:51:26;22.00;96.70
39493;DHT22;25176;51.060;3.720;2023-07-24T13:53:52;21.90;97.30
39493;DHT22;25176;51.060;3.720;2023-07-24T13:56:19;21.90;97.50
39493;DHT22;25176;51.060;3.720;2023-07-24T13:58:44;21.80;97.60
39493;DHT22;25176;51.060;3.720;2023-07-24T14:01:10;22.10;97.60
39493;DHT22;25176;51.060;3.720;2023-07-24T14:03:35;22.30;96.70
39493;DHT22;25176;51.060;3.720;2023-07-24T14:06:01;22.40;97.10
39493;DHT22;25176;51.060;3.720;2023-07-24T14:08:26;22.60;97.30
39493;DHT22;25176;51.060;3.720;2023-07-24T14:10:52;22.70;96.70
39493;DHT22;25176;51.060;3.720;2023-07-24T14:13:18;22.90;96.90
39493;DHT22;25176;51.060;3.720;2023-07-24T14:15:43;23.10;96.60
39493;DHT22;25176;51.060;3.720;2023-07-24T14:18:09;23.30;96.80
39493;DHT22;25176;51.060;3.720;2023-07-24T14:20:34;23.40;97.10
39493;DHT22;25176;51.060;3.720;2023-07-24T14:23:00;23.50;96.40
39493;DHT22;25176;51.060;3.720;2023-07-24T14:25:25;23.60;96.20
39493;DHT22;25176;51.060;3.720;2023-07-24T14:27:51;23.60;95.90
39493;DHT22;25176;51.060;3.720;2023-07-24T14:30:16;23.60;96.30
39493;DHT22;25176;51.060;3.720;2023-07-24T14:32:42;23.60;95.80
39493;DHT22;25176;51.060;3.720;2023-07-24T14:35:07;23.50;95.70
39493;DHT22;25176;51.060;3.720;2023-07-24T14:37:33;23.50;95.50
39493;DHT22;25176;51.060;3.720;2023-07-24T14:39:58;23.40;95.20
39493;DHT22;25176;51.060;3.720;2023-07-24T14:42:24;23.30;94.60
39493;DHT22;25176;51.060;3.720;2023-07-24T14:44:49;23.30;94.00
39493;DHT22;25176;51.060;3.720;2023-07-24T14:47:15;23.20;93.20
39493;DHT22;25176;51.060;3.720;2023-07-24T14:49:40;23.00;92.80
39493;DHT22;25176;51.060;3.720;2023-07-24T14:52:06;22.70;93.10
39493;DHT22;25176;51.060;3.720;2023-07-24T14:54:34;22.60;92.90
39493;DHT22;25176;51.060;3.720;2023-07-24T14:57:02;22.60;93.20
39493;DHT22;25176;51.060;3.720;2023-07-24T14:59:27;22.60;93.40
39493;DHT22;25176;51.060;3.720;2023-07-24T15:01:53;22.60;94.30
39493;DHT22;25176;51.060;3.720;2023-07-24T15:04:19;22.70;94.70
39493;DHT22;25176;51.060;3.720;2023-07-24T15:06:46;22.70;94.40
39493;DHT22;25176;51.060;3.720;2023-07-24T15:09:11;22.80;94.00
39493;DHT22;25176;51.060;3.720;2023-07-24T15:11:37;22.60;94.30
39493;DHT22;25176;51.060;3.720;2023-07-24T15:14:02;22.70;94.80
39493;DHT22;25176;51.060;3.720;2023-07-24T15:16:28;22.70;94.20
39493;DHT22;25176;51.060;3.720;2023-07-24T15:18:53;22.80;94.50
39493;DHT22;25176;51.060;3.720;2023-07-24T15:21:19;23.00;94.20
39493;DHT22;25176;51.060;3.720;2023-07-24T15:23:44;23.20;94.10